メインページ
METAR-TAF:

METAR-TAF

空港 :

ドバイ国際空港

ドバイ, アラブ首長国連邦

緯度: 25-15-10N, 経度: 055-21-52E, 海抜: 8m

現時点の気象観測

当レポートは18分前の02:00(UTC)に作成
変向風 6kt
気温 25°C
湿度 69%
気圧 1012 hPa
視程10km以上
1,500メートル以下は雲なし、積乱雲なし

METAR: OMDB 260200Z VRB06KT CAVOK 25/19 Q1012 NOSIG

時間: 06:18 (02:18 UTC)

予報

当レポートは3時間20分前の22:58(UTC)に作成
予報は26日の 00時(UTC)から 27日の 06時(UTC)まで有効
の風 15kt
視程: 7000m
26日の 04時(UTC)から 26日の 06時(UTC)まで徐々に
南/南東の風 15kt
確率 30% :
26日の 05時(UTC)から 26日の 10時(UTC)まで一時的に
南/南東の風 18kt、最大28ktの突風を伴う
視程: 4000m
風塵
26日の 10時(UTC)から 26日の 12時(UTC)まで徐々に
の風 17kt
26日の 14時(UTC)から 26日の 16時(UTC)まで徐々に
東/北東の風 12kt
確率 30% :
26日の 22時(UTC)から 27日の 06時(UTC)まで一時的に
変向風 20kt、最大35ktの突風を伴う
視程: 1500m
高度3000ftの雲は散在している, 積乱雲.
激しい雷雨, 雨, 風塵

TAF: OMDB 252258Z 2600/2706 10015KT 7000 NSC BECMG 2604/2606 16015KT PROB30 TEMPO 2605/2610 16018G28KT 4000 BLDU BECMG 2610/2612 35017KT BECMG 2614/2616 07012KT PROB30 TEMPO 2622/2706 VRB20G35KT 1500 TSRA BLDU SCT030CB

4,000以上の空港の気象観測と天気予報(METAR報とTAF報)

利用可能な観測所は地図上に黄色い丸と赤い丸で示す。

丸の上にカーソルを重ねると観測所名を参照できる。

次にクリックすると気象観測と天気予報を参照できる。

マップの切り替え:黒色「×」印の緑ボタンをクリックして拡大、「-」印の緑ボタンをクリックして縮小、緑色の三角印をクリックして隣りの地図に切り替え


METAR-TAF: